createdAt,value
2018-04-11T00:01:05.070Z,15.12
2018-04-11T00:03:34.571Z,15.11
2018-04-11T00:06:03.221Z,15.10
2018-04-11T00:08:32.021Z,15.05
2018-04-11T00:11:00.739Z,15.13
2018-04-11T00:13:29.483Z,15.15
2018-04-11T00:15:58.100Z,15.22
2018-04-11T00:18:26.907Z,15.17
2018-04-11T00:20:55.628Z,15.13
2018-04-11T00:23:24.268Z,15.14
2018-04-11T00:25:52.975Z,15.32
2018-04-11T00:28:21.704Z,15.27
2018-04-11T00:30:50.317Z,15.29
2018-04-11T00:33:19.037Z,15.36
2018-04-11T00:35:47.656Z,15.32
2018-04-11T00:38:16.377Z,15.26
2018-04-11T00:40:45.173Z,15.19
2018-04-11T00:43:13.927Z,15.08
2018-04-11T00:45:42.610Z,14.95
2018-04-11T00:48:11.231Z,14.95
2018-04-11T00:50:40.854Z,14.94
2018-04-11T00:53:21.178Z,14.99
2018-04-11T00:55:49.972Z,15.02
2018-04-11T00:58:18.696Z,15.00
2018-04-11T01:00:48.280Z,15.09
2018-04-11T01:03:16.999Z,15.03
2018-04-11T01:05:46.351Z,15.10
2018-04-11T01:08:15.003Z,15.04
2018-04-11T01:10:43.705Z,15.01
2018-04-11T01:13:12.514Z,14.96
2018-04-11T01:15:41.249Z,15.02
2018-04-11T01:18:09.899Z,15.04
2018-04-11T01:20:38.693Z,15.06
2018-04-11T01:23:07.415Z,15.01
2018-04-11T01:25:36.138Z,15.01
2018-04-11T01:28:04.840Z,15.07
2018-04-11T01:30:33.501Z,15.08
2018-04-11T01:33:02.201Z,15.03
2018-04-11T01:35:30.841Z,14.98
2018-04-11T01:37:59.646Z,14.91
2018-04-11T01:40:28.369Z,14.86
2018-04-11T01:42:57.871Z,14.87
2018-04-11T01:45:26.610Z,14.77
2018-04-11T01:47:55.352Z,14.82
2018-04-11T01:50:24.158Z,14.78
2018-04-11T01:52:52.803Z,14.87
2018-04-11T01:55:21.606Z,14.85
2018-04-11T01:57:50.236Z,14.81
2018-04-11T02:00:18.949Z,14.82
2018-04-11T02:02:47.630Z,14.76
2018-04-11T02:05:16.317Z,14.70
2018-04-11T02:07:45.114Z,14.69
2018-04-11T02:10:13.834Z,14.67
2018-04-11T02:12:42.555Z,14.65
2018-04-11T02:15:11.305Z,14.54
2018-04-11T02:17:40.177Z,14.48
2018-04-11T02:20:08.922Z,14.38
2018-04-11T02:22:37.748Z,14.31
2018-04-11T02:25:06.367Z,14.27
2018-04-11T02:27:35.143Z,14.22
2018-04-11T02:30:03.936Z,14.24
2018-04-11T02:32:32.636Z,14.16
2018-04-11T02:35:01.280Z,14.20
2018-04-11T02:37:29.882Z,14.18
2018-04-11T02:39:58.596Z,14.07
2018-04-11T02:42:27.225Z,14.19
2018-04-11T02:44:56.012Z,14.14
2018-04-11T02:47:25.876Z,14.01
2018-04-11T02:49:54.587Z,13.96
2018-04-11T02:52:36.154Z,13.83
2018-04-11T02:55:04.671Z,13.74
2018-04-11T02:57:34.001Z,13.66
2018-04-11T03:00:02.546Z,13.69
2018-04-11T03:02:31.245Z,13.73
2018-04-11T03:04:59.810Z,13.66
2018-04-11T03:07:28.356Z,13.64
2018-04-11T03:09:56.980Z,13.67
2018-04-11T03:12:25.523Z,13.71
2018-04-11T03:14:54.131Z,13.65
2018-04-11T03:17:22.771Z,13.52
2018-04-11T03:19:51.343Z,13.54
2018-04-11T03:22:19.861Z,13.49
2018-04-11T03:24:48.423Z,13.42
2018-04-11T03:27:17.054Z,13.34
2018-04-11T03:29:45.681Z,13.30
2018-04-11T03:32:14.293Z,13.18
2018-04-11T03:34:42.892Z,13.22
2018-04-11T03:37:11.441Z,13.14
2018-04-11T03:39:39.962Z,13.07
2018-04-11T03:42:08.687Z,13.03
2018-04-11T03:44:37.291Z,13.01
2018-04-11T03:47:05.797Z,13.02
2018-04-11T03:49:34.357Z,13.00
2018-04-11T03:52:02.868Z,13.00
2018-04-11T03:54:31.449Z,13.04
2018-04-11T03:56:59.977Z,12.99
2018-04-11T03:59:28.735Z,12.91
2018-04-11T04:01:57.409Z,12.91
2018-04-11T04:04:25.980Z,12.88
2018-04-11T04:06:54.596Z,12.91
2018-04-11T04:09:23.132Z,12.87
2018-04-11T04:11:51.750Z,12.91
2018-04-11T04:14:32.113Z,12.83
2018-04-11T04:17:12.392Z,12.92
2018-04-11T04:19:52.654Z,12.94
2018-04-11T04:22:21.200Z,12.93
2018-04-11T04:24:49.829Z,12.99
2018-04-11T04:27:18.377Z,12.94
2018-04-11T04:29:46.946Z,13.07
2018-04-11T04:32:15.459Z,13.14
2018-04-11T04:34:43.984Z,13.14
2018-04-11T04:37:12.798Z,13.11
2018-04-11T04:39:41.348Z,13.22
2018-04-11T04:42:09.923Z,13.28
2018-04-11T04:44:38.504Z,13.29
2018-04-11T04:47:07.061Z,13.45
2018-04-11T04:49:35.612Z,13.45
2018-04-11T04:52:04.318Z,13.57
2018-04-11T04:54:32.843Z,13.70
2018-04-11T04:57:01.427Z,13.80
2018-04-11T04:59:30.084Z,13.94
2018-04-11T05:01:58.622Z,14.03
2018-04-11T05:04:27.182Z,14.04
2018-04-11T05:06:55.690Z,14.15
2018-04-11T05:09:24.859Z,14.18
2018-04-11T05:11:53.419Z,14.51
2018-04-11T05:14:21.957Z,14.67
2018-04-11T05:16:50.505Z,14.77
2018-04-11T05:19:19.063Z,14.91
2018-04-11T05:21:47.593Z,14.84
2018-04-11T05:24:16.283Z,15.13
2018-04-11T05:26:44.867Z,15.37
2018-04-11T05:29:13.408Z,15.42
2018-04-11T05:31:42.018Z,15.56
2018-04-11T05:34:10.680Z,15.53
2018-04-11T05:36:39.241Z,15.55
2018-04-11T05:39:07.789Z,15.48
2018-04-11T05:41:37.049Z,15.46
2018-04-11T05:44:05.654Z,15.59
2018-04-11T05:46:34.288Z,15.42
2018-04-11T05:49:02.817Z,15.62
2018-04-11T05:51:31.328Z,15.84
2018-04-11T05:53:59.868Z,16.12
2018-04-11T05:56:28.445Z,16.48
2018-04-11T05:58:57.015Z,16.63
2018-04-11T06:01:25.807Z,16.77
2018-04-11T06:03:55.190Z,16.67
2018-04-11T06:06:23.783Z,17.08
2018-04-11T06:08:52.392Z,17.30
2018-04-11T06:11:21.073Z,17.08
2018-04-11T06:13:49.657Z,16.23
2018-04-11T06:16:18.249Z,17.12
2018-04-11T06:18:47.214Z,17.20
2018-04-11T06:21:15.750Z,17.24
2018-04-11T06:23:44.291Z,17.53
2018-04-11T06:26:12.924Z,17.67
2018-04-11T06:28:41.449Z,17.63
2018-04-11T06:31:10.075Z,17.91
2018-04-11T06:33:38.788Z,18.41
2018-04-11T06:36:07.354Z,18.95
2018-04-11T06:38:35.933Z,19.10
2018-04-11T06:41:04.449Z,18.94
2018-04-11T06:43:33.027Z,18.89
2018-04-11T06:46:02.305Z,19.09
2018-04-11T06:48:30.913Z,19.13
2018-04-11T06:50:59.421Z,19.25
2018-04-11T06:53:28.015Z,19.77
2018-04-11T06:55:56.580Z,19.38
2018-04-11T06:58:25.215Z,19.38
2018-04-11T07:00:53.731Z,19.72
2018-04-11T07:03:22.285Z,20.21
2018-04-11T07:05:50.828Z,20.27
2018-04-11T07:08:19.393Z,21.04
2018-04-11T07:10:48.078Z,22.04
2018-04-11T07:13:16.760Z,22.22
2018-04-11T07:15:45.453Z,23.16
2018-04-11T07:18:13.969Z,23.84
2018-04-11T07:20:42.610Z,24.08
2018-04-11T07:23:11.302Z,24.64
2018-04-11T07:25:39.823Z,24.85
2018-04-11T07:28:08.420Z,25.24
2018-04-11T07:30:36.967Z,25.58
2018-04-11T07:33:05.605Z,25.46
2018-04-11T07:35:34.222Z,25.53
2018-04-11T07:38:02.800Z,25.38
2018-04-11T07:40:31.319Z,24.89
2018-04-11T07:42:59.877Z,25.34
2018-04-11T07:45:28.425Z,25.91
2018-04-11T07:47:57.036Z,25.85
2018-04-11T07:50:26.552Z,25.72
2018-04-11T07:52:55.059Z,25.56
2018-04-11T07:55:23.624Z,25.19
2018-04-11T07:57:53.194Z,24.79
2018-04-11T08:00:21.740Z,24.31
2018-04-11T08:02:50.315Z,24.85
2018-04-11T08:05:19.483Z,24.23
2018-04-11T08:07:48.041Z,24.76
2018-04-11T08:10:16.625Z,24.75
2018-04-11T08:12:45.252Z,23.85
2018-04-11T08:15:13.872Z,23.54
2018-04-11T08:17:42.561Z,23.30
2018-04-11T08:20:11.114Z,23.67
2018-04-11T08:22:40.495Z,24.02
2018-04-11T08:25:09.092Z,23.72
2018-04-11T08:27:37.665Z,23.67
2018-04-11T08:30:07.022Z,23.73
2018-04-11T08:32:35.830Z,23.85
2018-04-11T08:35:04.403Z,23.39
2018-04-11T08:37:32.979Z,22.95
2018-04-11T08:40:01.542Z,23.04
2018-04-11T08:42:30.154Z,22.78
2018-04-11T08:44:58.746Z,22.90
2018-04-11T08:47:27.238Z,23.42
2018-04-11T08:49:56.678Z,23.21
2018-04-11T08:52:25.304Z,23.89
2018-04-11T08:54:54.444Z,24.81
2018-04-11T08:57:22.975Z,24.71
2018-04-11T08:59:51.552Z,24.03
2018-04-11T09:02:20.088Z,23.69
2018-04-11T09:04:48.653Z,23.54
2018-04-11T09:07:17.169Z,23.32
2018-04-11T09:09:45.664Z,23.09
2018-04-11T09:12:14.275Z,22.94
2018-04-11T09:14:42.785Z,23.03
2018-04-11T09:17:11.339Z,22.79
2018-04-11T09:19:40.040Z,22.36
2018-04-11T09:22:09.101Z,22.26
2018-04-11T09:24:37.639Z,22.13
2018-04-11T09:27:07.174Z,21.91
2018-04-11T09:29:35.827Z,21.67
2018-04-11T09:32:04.372Z,21.89
2018-04-11T09:34:32.935Z,21.93
2018-04-11T09:37:01.696Z,22.42
2018-04-11T09:39:30.202Z,22.74
2018-04-11T09:41:58.862Z,23.34
2018-04-11T09:44:27.359Z,23.15
2018-04-11T09:46:55.897Z,22.65
2018-04-11T09:49:24.488Z,23.28
2018-04-11T09:51:53.073Z,24.18
2018-04-11T09:54:22.654Z,24.78
2018-04-11T09:56:51.176Z,25.35
2018-04-11T09:59:20.461Z,26.07
2018-04-11T10:01:50.864Z,27.06
2018-04-11T10:04:19.541Z,27.48
2018-04-11T10:06:48.762Z,27.86
2018-04-11T10:09:17.307Z,28.08
2018-04-11T10:11:45.813Z,27.77
2018-04-11T10:14:14.433Z,28.88
2018-04-11T10:16:43.052Z,28.55
2018-04-11T10:19:12.352Z,28.00
2018-04-11T10:21:40.909Z,26.06
2018-04-11T10:24:09.740Z,25.24
2018-04-11T10:26:38.241Z,24.61
2018-04-11T10:29:06.798Z,24.83
2018-04-11T10:31:35.333Z,25.95
2018-04-11T10:34:03.905Z,28.04
2018-04-11T10:36:32.993Z,29.64
2018-04-11T10:39:01.579Z,29.83
2018-04-11T10:41:30.174Z,28.59
2018-04-11T10:43:58.870Z,26.84
2018-04-11T10:46:27.477Z,25.79
2018-04-11T10:48:56.035Z,25.46
2018-04-11T10:51:24.771Z,24.94
2018-04-11T10:53:53.363Z,24.94
2018-04-11T10:56:22.100Z,25.83
2018-04-11T10:58:50.714Z,27.31
2018-04-11T11:01:19.270Z,28.30
2018-04-11T11:03:47.869Z,28.75
2018-04-11T11:06:16.489Z,28.60
2018-04-11T11:08:45.026Z,28.78
2018-04-11T11:11:13.538Z,28.89
2018-04-11T11:13:42.141Z,29.11
2018-04-11T11:16:10.655Z,28.66
2018-04-11T11:18:39.192Z,29.10
2018-04-11T11:21:07.742Z,29.87
2018-04-11T11:23:36.446Z,29.87
2018-04-11T11:26:05.030Z,28.96
2018-04-11T11:28:33.649Z,29.05
2018-04-11T11:31:02.202Z,28.75
2018-04-11T11:33:30.821Z,27.86
2018-04-11T11:35:59.441Z,26.53
2018-04-11T11:38:28.071Z,26.40
2018-04-11T11:40:56.688Z,26.27
2018-04-11T11:43:25.307Z,26.18
2018-04-11T11:45:53.919Z,25.45
2018-04-11T11:48:22.452Z,25.34
2018-04-11T11:50:52.195Z,25.06
2018-04-11T11:53:20.798Z,25.06
2018-04-11T11:55:49.518Z,25.35
2018-04-11T11:58:18.090Z,25.30
2018-04-11T12:00:46.666Z,25.70
2018-04-11T12:03:16.055Z,24.96
2018-04-11T12:05:44.630Z,25.40
2018-04-11T12:08:13.203Z,25.53
2018-04-11T12:10:41.952Z,25.22
2018-04-11T12:13:10.510Z,25.00
2018-04-11T12:15:39.103Z,24.92
2018-04-11T12:18:07.813Z,24.69
2018-04-11T12:20:36.353Z,24.27
2018-04-11T12:23:05.059Z,24.23
2018-04-11T12:25:33.618Z,24.31
2018-04-11T12:28:02.212Z,24.34
2018-04-11T12:30:30.770Z,24.42
2018-04-11T12:32:59.321Z,24.45
2018-04-11T12:35:27.839Z,24.42
2018-04-11T12:37:56.401Z,24.49
2018-04-11T12:40:24.918Z,24.48
2018-04-11T12:42:54.205Z,24.37
2018-04-11T12:45:23.723Z,24.45
2018-04-11T12:47:52.244Z,24.46
2018-04-11T12:50:20.847Z,24.60
2018-04-11T12:52:49.416Z,24.90
2018-04-11T12:55:17.970Z,24.84
2018-04-11T12:57:46.761Z,23.51
2018-04-11T13:00:15.284Z,24.00
2018-04-11T13:02:43.890Z,24.12
2018-04-11T13:05:13.065Z,24.04
2018-04-11T13:07:41.611Z,24.20
2018-04-11T13:10:10.174Z,24.15
2018-04-11T13:12:38.798Z,24.32
2018-04-11T13:15:07.349Z,24.26
2018-04-11T13:17:35.913Z,24.31
2018-04-11T13:20:04.533Z,24.29
2018-04-11T13:22:33.073Z,24.39
2018-04-11T13:25:01.696Z,24.30
2018-04-11T13:27:31.320Z,24.42
2018-04-11T13:30:00.682Z,24.39
2018-04-11T13:32:29.241Z,24.36
2018-04-11T13:34:59.042Z,24.24
2018-04-11T13:37:28.423Z,24.16
2018-04-11T13:39:57.751Z,24.07
2018-04-11T13:42:28.431Z,24.14
2018-04-11T13:44:56.970Z,24.05
2018-04-11T13:47:25.589Z,24.06
2018-04-11T13:49:54.140Z,24.23
2018-04-11T13:52:22.691Z,24.39
2018-04-11T13:54:51.265Z,24.51
2018-04-11T13:57:19.790Z,24.37
2018-04-11T13:59:49.429Z,24.39
2018-04-11T14:02:17.993Z,24.48
2018-04-11T14:04:46.592Z,24.60
2018-04-11T14:07:15.124Z,24.47
2018-04-11T14:09:43.724Z,24.42
2018-04-11T14:12:12.297Z,24.42
2018-04-11T14:14:41.454Z,24.42
2018-04-11T14:17:10.399Z,24.46
2018-04-11T14:19:39.946Z,24.36
2018-04-11T14:22:08.723Z,24.37
2018-04-11T14:24:37.281Z,24.35
2018-04-11T14:27:05.840Z,24.32
2018-04-11T14:29:34.456Z,24.19
2018-04-11T14:32:03.022Z,24.05
2018-04-11T14:34:31.537Z,24.10
2018-04-11T14:37:00.102Z,24.21
2018-04-11T14:39:29.819Z,24.35
2018-04-11T14:41:58.332Z,24.43
2018-04-11T14:44:26.968Z,24.46
2018-04-11T14:46:55.636Z,24.26
2018-04-11T14:49:24.849Z,24.26
2018-04-11T14:51:53.460Z,24.20
2018-04-11T14:54:22.017Z,24.26
2018-04-11T14:56:50.546Z,24.23
2018-04-11T14:59:19.154Z,24.31
2018-04-11T15:01:47.674Z,24.36
2018-04-11T15:04:16.333Z,24.30
2018-04-11T15:06:45.091Z,24.29
2018-04-11T15:09:13.744Z,24.00
2018-04-11T15:11:43.137Z,24.16
2018-04-11T15:14:11.705Z,24.18
2018-04-11T15:16:40.228Z,24.23
2018-04-11T15:19:09.762Z,24.16
2018-04-11T15:21:38.506Z,24.22
2018-04-11T15:24:07.042Z,24.11
2018-04-11T15:26:35.820Z,24.08
2018-04-11T15:29:04.394Z,24.05
2018-04-11T15:31:32.907Z,23.89
2018-04-11T15:34:01.482Z,24.00
2018-04-11T15:36:30.096Z,24.02
2018-04-11T15:38:58.705Z,24.03
2018-04-11T15:41:27.263Z,23.97
2018-04-11T15:43:55.941Z,23.84
2018-04-11T15:46:39.313Z,23.76
2018-04-11T15:49:07.936Z,23.60
2018-04-11T15:51:36.475Z,23.61
2018-04-11T15:54:05.061Z,23.55
2018-04-11T15:56:33.581Z,23.55
2018-04-11T15:59:02.327Z,23.54
2018-04-11T16:01:30.842Z,23.45
2018-04-11T16:03:59.448Z,23.48
2018-04-11T16:06:28.021Z,23.37
2018-04-11T16:08:56.587Z,23.32
2018-04-11T16:11:25.230Z,23.26
2018-04-11T16:13:54.453Z,23.18
2018-04-11T16:16:22.976Z,23.12
2018-04-11T16:18:51.593Z,23.07
2018-04-11T16:21:20.200Z,23.00
2018-04-11T16:23:48.848Z,22.94
2018-04-11T16:26:17.372Z,22.89
2018-04-11T16:28:46.150Z,22.86
2018-04-11T16:31:14.661Z,22.88
2018-04-11T16:33:44.433Z,22.77
2018-04-11T16:36:13.020Z,22.63
2018-04-11T16:38:41.543Z,22.61
2018-04-11T16:41:10.202Z,22.42
2018-04-11T16:43:38.886Z,22.40
2018-04-11T16:46:07.471Z,22.30
2018-04-11T16:48:37.033Z,22.17
2018-04-11T16:51:05.638Z,22.12
2018-04-11T16:53:34.309Z,22.00
2018-04-11T16:56:03.025Z,21.90
2018-04-11T16:58:31.598Z,21.87
2018-04-11T17:01:00.102Z,21.82
2018-04-11T17:03:28.710Z,21.75
2018-04-11T17:05:57.347Z,21.64
2018-04-11T17:08:25.876Z,21.59
2018-04-11T17:10:54.528Z,21.51
2018-04-11T17:13:23.177Z,21.38
2018-04-11T17:15:51.690Z,21.31
2018-04-11T17:18:20.322Z,21.14
2018-04-11T17:21:00.608Z,21.06
2018-04-11T17:23:40.956Z,20.95
2018-04-11T17:26:21.312Z,20.83
2018-04-11T17:29:02.974Z,20.75
2018-04-11T17:31:32.457Z,20.75
2018-04-11T17:34:01.061Z,20.69
2018-04-11T17:36:30.217Z,20.70
2018-04-11T17:38:58.809Z,20.63
2018-04-11T17:41:27.360Z,20.60
2018-04-11T17:43:56.005Z,20.57
2018-04-11T17:46:24.591Z,20.49
2018-04-11T17:48:53.253Z,20.41
2018-04-11T17:51:21.858Z,20.28
2018-04-11T17:53:50.492Z,20.13
2018-04-11T17:56:19.118Z,20.03
2018-04-11T17:58:47.735Z,20.01
2018-04-11T18:01:17.160Z,19.99
2018-04-11T18:03:45.981Z,19.88
2018-04-11T18:06:14.572Z,19.74
2018-04-11T18:08:43.377Z,19.44
2018-04-11T18:11:11.950Z,19.41
2018-04-11T18:13:40.568Z,19.37
2018-04-11T18:16:09.236Z,19.37
2018-04-11T18:18:38.011Z,19.28
2018-04-11T18:21:06.635Z,19.22
2018-04-11T18:23:35.262Z,19.15
2018-04-11T18:26:03.975Z,19.07
2018-04-11T18:28:32.491Z,19.01
2018-04-11T18:31:01.124Z,18.94
2018-04-11T18:33:29.941Z,18.82
2018-04-11T18:35:58.663Z,17.90
2018-04-11T18:38:27.168Z,18.63
2018-04-11T18:40:56.345Z,18.58
2018-04-11T18:43:24.957Z,18.62
2018-04-11T18:45:53.557Z,18.56
2018-04-11T18:48:22.120Z,18.50
2018-04-11T18:50:50.798Z,18.39
2018-04-11T18:53:19.334Z,18.35
2018-04-11T18:55:47.861Z,18.23
2018-04-11T18:58:16.423Z,18.22
2018-04-11T19:00:45.086Z,18.21
2018-04-11T19:03:13.588Z,18.20
2018-04-11T19:05:42.176Z,18.22
2018-04-11T19:08:10.685Z,18.15
2018-04-11T19:10:39.271Z,18.08
2018-04-11T19:13:07.919Z,18.02
2018-04-11T19:15:36.510Z,17.98
2018-04-11T19:18:05.236Z,17.90
2018-04-11T19:20:33.950Z,17.82
2018-04-11T19:23:02.496Z,17.82
2018-04-11T19:25:31.194Z,17.75
2018-04-11T19:27:59.754Z,17.67
2018-04-11T19:30:28.437Z,17.58
2018-04-11T19:32:57.007Z,17.53
2018-04-11T19:35:25.745Z,17.51
2018-04-11T19:37:54.400Z,17.42
2018-04-11T19:40:23.124Z,17.39
2018-04-11T19:42:51.846Z,17.33
2018-04-11T19:45:21.071Z,17.34
2018-04-11T19:47:49.651Z,17.37
2018-04-11T19:50:18.245Z,17.37
2018-04-11T19:52:46.733Z,17.18
2018-04-11T19:55:15.361Z,17.02
2018-04-11T19:57:43.970Z,16.95
2018-04-11T20:00:12.545Z,16.92
2018-04-11T20:02:41.219Z,16.82
2018-04-11T20:05:09.757Z,16.71
2018-04-11T20:07:38.279Z,16.63
2018-04-11T20:10:06.982Z,16.57
2018-04-11T20:12:35.603Z,16.55
2018-04-11T20:15:04.271Z,16.54
2018-04-11T20:17:33.476Z,16.50
2018-04-11T20:20:02.120Z,16.43
2018-04-11T20:22:30.699Z,16.53
2018-04-11T20:24:59.414Z,16.48
2018-04-11T20:27:27.942Z,16.57
2018-04-11T20:29:56.531Z,16.47
2018-04-11T20:32:25.120Z,16.36
2018-04-11T20:34:53.800Z,16.38
2018-04-11T20:37:22.354Z,16.34
2018-04-11T20:39:50.923Z,16.28
2018-04-11T20:42:19.663Z,16.23
2018-04-11T20:44:48.989Z,16.20
2018-04-11T20:47:17.681Z,16.05
2018-04-11T20:49:46.179Z,16.04
2018-04-11T20:52:14.813Z,16.03
2018-04-11T20:54:43.483Z,16.01
2018-04-11T20:57:12.111Z,15.98
2018-04-11T20:59:40.816Z,15.97
2018-04-11T21:02:09.409Z,16.03
2018-04-11T21:04:37.995Z,16.05
2018-04-11T21:07:06.689Z,16.08
2018-04-11T21:09:35.229Z,16.04
2018-04-11T21:12:04.628Z,15.95
2018-04-11T21:14:33.244Z,15.89
2018-04-11T21:17:01.767Z,15.85
2018-04-11T21:19:31.049Z,15.91
2018-04-11T21:21:59.591Z,15.90
2018-04-11T21:24:28.136Z,15.96
2018-04-11T21:26:57.118Z,15.89
2018-04-11T21:29:25.681Z,15.86
2018-04-11T21:31:54.273Z,15.71
2018-04-11T21:34:22.824Z,15.68
2018-04-11T21:36:51.543Z,15.61
2018-04-11T21:39:20.269Z,15.68
2018-04-11T21:41:48.894Z,15.64
2018-04-11T21:44:17.469Z,15.52
2018-04-11T21:46:47.746Z,15.49
2018-04-11T21:49:17.203Z,15.47
2018-04-11T21:51:46.854Z,15.36
2018-04-11T21:54:15.450Z,15.33
2018-04-11T21:56:44.168Z,15.30
2018-04-11T21:59:12.849Z,15.34
2018-04-11T22:01:41.477Z,15.31
2018-04-11T22:04:10.090Z,15.17
2018-04-11T22:06:39.379Z,15.01
2018-04-11T22:09:08.151Z,14.94
2018-04-11T22:11:36.716Z,14.88
2018-04-11T22:14:05.252Z,14.87
2018-04-11T22:16:33.865Z,14.83
2018-04-11T22:19:02.436Z,14.76
2018-04-11T22:21:31.106Z,14.73
2018-04-11T22:23:59.870Z,14.74
2018-04-11T22:26:28.495Z,14.67
2018-04-11T22:28:57.130Z,14.56
2018-04-11T22:31:25.736Z,14.59
2018-04-11T22:33:55.263Z,14.60
2018-04-11T22:36:24.034Z,14.56
2018-04-11T22:38:52.708Z,14.44
2018-04-11T22:41:21.425Z,14.39
2018-04-11T22:43:50.146Z,14.35
2018-04-11T22:46:18.714Z,14.38
2018-04-11T22:48:47.292Z,14.43
2018-04-11T22:51:15.868Z,14.45
2018-04-11T22:53:44.447Z,14.37
2018-04-11T22:56:13.087Z,14.30
2018-04-11T22:58:42.277Z,14.19
2018-04-11T23:01:10.820Z,14.08
2018-04-11T23:03:39.406Z,14.08
2018-04-11T23:06:08.101Z,14.01
2018-04-11T23:08:36.763Z,13.95
2018-04-11T23:11:05.512Z,13.94
2018-04-11T23:13:34.151Z,13.92
2018-04-11T23:16:02.809Z,13.95
2018-04-11T23:18:31.425Z,13.82
2018-04-11T23:21:00.048Z,13.82
2018-04-11T23:23:28.792Z,13.84
2018-04-11T23:25:57.421Z,13.77
2018-04-11T23:28:26.050Z,13.69
2018-04-11T23:30:54.660Z,13.70
2018-04-11T23:33:23.280Z,13.66
2018-04-11T23:35:53.348Z,13.68
2018-04-11T23:38:22.129Z,13.64
2018-04-11T23:40:50.695Z,13.59
2018-04-11T23:43:19.240Z,13.53
2018-04-11T23:45:47.900Z,13.56
2018-04-11T23:48:16.405Z,13.55
2018-04-11T23:50:44.958Z,13.51
2018-04-11T23:53:13.561Z,13.33
2018-04-11T23:55:42.123Z,13.37
2018-04-11T23:58:10.818Z,13.40
